createdAt,value
2022-11-09T04:50:43.639Z,11.30
2022-11-09T04:53:13.599Z,11.30
2022-11-09T04:55:42.893Z,11.30
2022-11-09T04:58:11.954Z,11.30
2022-11-09T05:00:41.082Z,11.30
2022-11-09T05:03:09.728Z,11.30
2022-11-09T05:05:44.073Z,11.30
2022-11-09T05:08:17.195Z,11.30
2022-11-09T05:10:45.790Z,11.30
2022-11-09T05:13:15.338Z,11.20
2022-11-09T05:15:43.981Z,11.20
2022-11-09T05:18:12.281Z,11.20
2022-11-09T05:20:42.688Z,11.20
2022-11-09T05:23:28.736Z,11.20
2022-11-09T05:25:58.646Z,11.20
2022-11-09T05:28:27.288Z,11.30
2022-11-09T05:30:55.586Z,11.30
2022-11-09T05:33:24.016Z,11.30
2022-11-09T05:35:55.068Z,11.30
2022-11-09T05:38:23.898Z,11.30
2022-11-09T05:40:53.588Z,11.30
2022-11-09T05:43:23.812Z,11.40
2022-11-09T05:45:52.852Z,11.40
2022-11-09T05:48:21.242Z,11.40
2022-11-09T05:50:49.533Z,11.40
2022-11-09T05:53:18.188Z,11.40
2022-11-09T05:55:46.980Z,11.40
2022-11-09T05:58:15.405Z,11.50
2022-11-09T06:00:45.217Z,11.50
2022-11-09T06:03:14.304Z,11.50
2022-11-09T06:05:45.671Z,11.60
2022-11-09T06:08:16.116Z,11.60
2022-11-09T06:10:44.908Z,11.70
2022-11-09T06:13:14.727Z,11.70
2022-11-09T06:15:44.574Z,11.70
2022-11-09T06:18:12.970Z,11.70
2022-11-09T06:20:41.363Z,11.70
2022-11-09T06:23:12.228Z,11.80
2022-11-09T06:25:40.634Z,11.80
2022-11-09T06:28:09.197Z,11.80
2022-11-09T06:30:38.604Z,11.70
2022-11-09T06:33:15.010Z,11.70
2022-11-09T06:35:45.168Z,11.70
2022-11-09T06:38:15.799Z,11.70
2022-11-09T06:41:01.511Z,11.70
2022-11-09T06:43:36.010Z,11.70
2022-11-09T06:46:10.489Z,11.70
2022-11-09T06:48:40.766Z,11.70
2022-11-09T06:51:33.963Z,11.70
2022-11-09T06:57:04.300Z,11.70
2022-11-09T06:59:36.050Z,11.70
2022-11-09T07:02:04.681Z,11.70
2022-11-09T07:04:34.421Z,11.60
2022-11-09T07:07:02.807Z,11.60
2022-11-09T07:09:31.282Z,11.60
2022-11-09T07:12:00.199Z,11.50
2022-11-09T07:14:34.031Z,11.50
2022-11-09T07:17:02.429Z,11.40
2022-11-09T07:19:31.190Z,11.30
2022-11-09T07:22:01.492Z,11.30
2022-11-09T07:24:34.603Z,11.20
2022-11-09T07:27:03.143Z,11.10
2022-11-09T07:29:32.382Z,11.10
2022-11-09T07:32:00.891Z,11.10
2022-11-09T07:34:29.437Z,11.10
2022-11-09T07:36:57.895Z,11.10
2022-11-09T07:39:32.152Z,11.00
2022-11-09T07:42:00.781Z,11.00
2022-11-09T07:44:35.422Z,11.00
2022-11-09T07:47:03.843Z,11.00
2022-11-09T07:49:32.205Z,11.00
2022-11-09T07:52:00.930Z,11.00
2022-11-09T07:54:29.392Z,11.00
2022-11-09T07:56:59.284Z,11.00
2022-11-09T07:59:34.461Z,11.10
2022-11-09T08:02:03.027Z,11.10
2022-11-09T08:04:31.489Z,12.60
2022-11-09T08:07:00.170Z,11.20
2022-11-09T08:09:29.698Z,11.20
2022-11-09T08:12:02.000Z,11.20
2022-11-09T08:14:36.016Z,11.20
2022-11-09T08:17:04.288Z,11.30
2022-11-09T08:19:32.773Z,11.30
2022-11-09T08:22:01.636Z,11.40
2022-11-09T08:24:30.141Z,11.40
2022-11-09T08:26:58.555Z,11.40
2022-11-09T08:29:34.307Z,11.40
2022-11-09T08:32:02.997Z,11.40
2022-11-09T08:34:31.607Z,11.50
2022-11-09T08:37:02.648Z,11.50
2022-11-09T08:39:31.119Z,11.50
2022-11-09T08:41:59.719Z,11.50
2022-11-09T08:44:33.422Z,11.50
2022-11-09T08:47:01.848Z,11.50
2022-11-09T08:49:30.379Z,11.50
2022-11-09T08:51:59.241Z,11.50
2022-11-09T08:54:28.946Z,11.50
2022-11-09T08:56:57.967Z,11.50
2022-11-09T08:59:33.768Z,11.50
2022-11-09T09:02:02.380Z,11.50
2022-11-09T09:04:31.004Z,11.50
2022-11-09T09:07:00.408Z,11.60
2022-11-09T09:09:29.254Z,11.60
2022-11-09T09:11:57.834Z,11.60
2022-11-09T09:14:33.737Z,11.70
2022-11-09T09:17:03.939Z,11.70
2022-11-09T09:19:33.060Z,11.80
2022-11-09T09:22:03.508Z,11.90
2022-11-09T09:24:32.639Z,11.90
2022-11-09T09:27:01.859Z,11.90
2022-11-09T09:29:36.306Z,12.00
2022-11-09T09:32:05.178Z,12.20
2022-11-09T09:34:34.064Z,12.30
2022-11-09T09:37:02.779Z,12.40
2022-11-09T09:39:32.074Z,12.60
2022-11-09T09:42:03.312Z,12.70
2022-11-09T09:44:42.288Z,12.80
2022-11-09T09:47:14.487Z,12.80
2022-11-09T09:49:46.770Z,12.80
2022-11-09T09:52:22.566Z,12.80
2022-11-09T09:55:01.315Z,12.80
2022-11-09T09:57:31.259Z,12.70
2022-11-09T10:00:06.596Z,12.50
2022-11-09T10:02:37.720Z,12.40
2022-11-09T10:05:12.228Z,12.40
2022-11-09T10:07:47.108Z,12.40
2022-11-09T10:10:37.983Z,12.40
2022-11-09T10:13:32.241Z,12.40
2022-11-09T10:16:09.532Z,12.40
2022-11-09T10:19:09.963Z,12.50
2022-11-09T10:21:43.797Z,12.70
2022-11-09T10:24:25.520Z,12.50
2022-11-09T10:26:56.976Z,12.60
2022-11-09T10:29:29.187Z,12.50
2022-11-09T10:32:04.069Z,12.50
2022-11-09T10:34:50.889Z,12.50
2022-11-09T10:37:23.427Z,12.50
2022-11-09T10:39:57.971Z,12.60
2022-11-09T10:42:26.426Z,12.60
2022-11-09T10:44:55.215Z,12.80
2022-11-09T10:47:26.511Z,12.90
2022-11-09T10:50:17.056Z,13.00
2022-11-09T10:52:47.728Z,13.00
2022-11-09T10:55:27.022Z,13.10
2022-11-09T10:57:59.068Z,13.20
2022-11-09T11:00:28.069Z,13.20
2022-11-09T11:02:58.547Z,13.30
2022-11-09T11:05:35.043Z,13.40
2022-11-09T11:08:31.300Z,13.40
2022-11-09T11:11:32.629Z,13.40
2022-11-09T11:14:30.280Z,13.50
2022-11-09T11:17:00.120Z,13.50
2022-11-09T11:19:34.969Z,13.50
2022-11-09T11:22:24.093Z,13.60
2022-11-09T11:24:56.746Z,13.70
2022-11-09T11:27:32.216Z,13.70
2022-11-09T11:30:14.285Z,13.80
2022-11-09T11:32:50.183Z,13.80
2022-11-09T11:35:31.919Z,14.00
2022-11-09T11:38:21.657Z,14.10
2022-11-09T11:41:04.044Z,14.10
2022-11-09T11:43:46.708Z,14.00
2022-11-09T11:46:23.368Z,14.00
2022-11-09T11:49:17.849Z,14.00
2022-11-09T11:51:54.501Z,14.00
2022-11-09T11:54:32.730Z,14.00
2022-11-09T11:57:10.661Z,14.10
2022-11-09T12:00:03.681Z,14.10
2022-11-09T12:03:08.591Z,14.10
2022-11-09T12:06:21.804Z,14.00
2022-11-09T12:09:10.813Z,14.00
2022-11-09T12:11:55.162Z,14.00
2022-11-09T12:14:38.529Z,14.00
2022-11-09T12:17:14.772Z,14.00
2022-11-09T12:20:04.481Z,14.10
2022-11-09T12:22:48.331Z,14.10
2022-11-09T12:25:28.990Z,14.00
2022-11-09T12:28:15.372Z,14.10
2022-11-09T12:30:54.626Z,14.10
2022-11-09T12:33:34.707Z,14.30
2022-11-09T12:36:10.526Z,14.40
2022-11-09T12:38:52.513Z,14.60
2022-11-09T12:41:32.924Z,14.60
2022-11-09T12:44:05.744Z,14.60
2022-11-09T12:46:38.043Z,14.60
2022-11-09T12:49:07.852Z,14.60
2022-11-09T12:51:36.903Z,15.20
2022-11-09T12:54:11.948Z,13.10
2022-11-09T12:56:54.543Z,14.50
2022-11-09T12:59:35.610Z,14.50
2022-11-09T13:02:05.931Z,14.40
2022-11-09T13:04:34.844Z,14.40
2022-11-09T13:07:43.065Z,14.40
2022-11-09T13:10:29.571Z,14.40
2022-11-09T13:13:20.841Z,14.30
2022-11-09T13:16:13.698Z,14.30
2022-11-09T13:18:54.125Z,14.10
2022-11-09T13:21:38.056Z,14.30
2022-11-09T13:24:55.361Z,14.30
2022-11-09T13:27:40.628Z,14.30
2022-11-09T13:30:42.801Z,14.20
2022-11-09T13:33:24.189Z,14.20
2022-11-09T13:36:20.068Z,14.20
2022-11-09T13:39:04.353Z,14.20
2022-11-09T13:41:46.918Z,14.20
2022-11-09T13:44:35.978Z,14.20
2022-11-09T13:47:23.723Z,14.10
2022-11-09T13:49:53.352Z,14.10
2022-11-09T13:52:52.312Z,14.10
2022-11-09T13:55:40.676Z,14.10
2022-11-09T13:58:18.028Z,14.10
2022-11-09T14:00:49.862Z,14.10
2022-11-09T14:03:26.491Z,14.00
2022-11-09T14:05:57.324Z,14.00
2022-11-09T14:08:27.337Z,13.90
2022-11-09T14:11:21.966Z,13.90
2022-11-09T14:14:10.035Z,13.80
2022-11-09T14:16:49.506Z,13.80
2022-11-09T14:19:29.383Z,13.80
2022-11-09T14:21:57.884Z,13.70
2022-11-09T14:24:32.791Z,13.70
2022-11-09T14:27:14.357Z,13.60
2022-11-09T14:29:52.134Z,13.60
2022-11-09T14:32:26.794Z,13.60
2022-11-09T14:35:11.763Z,13.50
2022-11-09T14:37:45.609Z,13.50
2022-11-09T14:40:20.025Z,13.40
2022-11-09T14:42:51.944Z,13.30
2022-11-09T14:45:21.637Z,13.40
2022-11-09T14:47:56.235Z,13.30
2022-11-09T14:50:28.754Z,13.30
2022-11-09T14:53:04.643Z,13.20
2022-11-09T14:55:34.714Z,13.20
2022-11-09T14:58:04.037Z,13.20
2022-11-09T15:00:36.298Z,13.10
2022-11-09T15:03:29.160Z,13.10
2022-11-09T15:06:10.163Z,13.10
2022-11-09T15:08:47.964Z,13.00
2022-11-09T15:11:16.582Z,12.90
2022-11-09T15:13:47.699Z,12.80
2022-11-09T15:16:23.083Z,12.80
2022-11-09T15:18:52.082Z,12.70
2022-11-09T15:21:34.163Z,12.70
2022-11-09T15:24:15.381Z,12.60
2022-11-09T15:26:46.463Z,12.50
2022-11-09T15:29:38.693Z,12.40
2022-11-09T15:32:16.911Z,12.40
2022-11-09T15:34:54.503Z,12.40
2022-11-09T15:37:30.330Z,12.40
2022-11-09T15:39:59.923Z,12.40
2022-11-09T15:42:29.095Z,12.40
2022-11-09T15:45:00.235Z,12.30
2022-11-09T15:47:38.254Z,12.40
2022-11-09T15:50:18.963Z,12.40
2022-11-09T15:52:49.255Z,12.40
2022-11-09T15:55:22.175Z,12.40
2022-11-09T15:57:52.934Z,12.40
2022-11-09T16:00:23.657Z,12.30
2022-11-09T16:02:52.286Z,12.30
2022-11-09T16:05:22.783Z,12.30
2022-11-09T16:07:53.926Z,12.30
2022-11-09T16:10:24.075Z,12.20
2022-11-09T16:12:53.284Z,12.20
2022-11-09T16:15:22.263Z,12.20
2022-11-09T16:17:51.563Z,12.20
2022-11-09T16:20:21.050Z,12.30
2022-11-09T16:22:51.716Z,12.30
2022-11-09T16:25:20.455Z,12.30
2022-11-09T16:27:51.005Z,12.30
2022-11-09T16:30:22.933Z,12.30
2022-11-09T16:32:51.689Z,12.20
2022-11-09T16:35:28.486Z,12.20
2022-11-09T16:38:00.490Z,12.20
2022-11-09T16:40:29.234Z,12.10
2022-11-09T16:42:57.874Z,12.10
2022-11-09T16:45:30.613Z,12.00
2022-11-09T16:48:08.654Z,12.00
2022-11-09T16:50:37.250Z,11.90
2022-11-09T16:53:07.360Z,11.90
2022-11-09T16:55:36.482Z,11.80
2022-11-09T16:58:05.233Z,11.80
2022-11-09T17:00:55.907Z,11.70
2022-11-09T17:03:22.802Z,11.70
2022-11-09T17:05:51.417Z,11.70
2022-11-09T17:08:21.692Z,11.60
2022-11-09T17:10:50.797Z,11.60
2022-11-09T17:13:19.504Z,11.60
2022-11-09T17:15:50.470Z,11.60
2022-11-09T17:18:19.661Z,11.60
2022-11-09T17:20:50.006Z,11.60
2022-11-09T17:23:21.556Z,11.50
2022-11-09T17:25:57.388Z,11.50
2022-11-09T17:28:26.101Z,11.50
2022-11-09T17:30:55.983Z,11.50
2022-11-09T17:33:24.868Z,11.50
2022-11-09T17:36:01.074Z,11.50
2022-11-09T17:38:33.282Z,11.40
2022-11-09T17:41:06.583Z,11.40
2022-11-09T17:43:38.282Z,11.40
2022-11-09T17:46:08.141Z,11.40
2022-11-09T17:48:38.110Z,11.30
2022-11-09T17:51:07.941Z,11.30
2022-11-09T17:53:38.373Z,11.20
2022-11-09T17:56:08.538Z,11.30
2022-11-09T17:58:40.133Z,11.20
2022-11-09T18:01:10.296Z,11.20
2022-11-09T18:03:40.130Z,11.10
2022-11-09T18:06:13.164Z,11.00
2022-11-09T18:08:43.934Z,11.00
2022-11-09T18:11:12.850Z,11.00
2022-11-09T18:13:42.641Z,11.00
2022-11-09T18:16:29.640Z,11.00
2022-11-09T18:19:01.879Z,11.00
2022-11-09T18:21:30.433Z,11.00
2022-11-09T18:24:00.473Z,11.10
2022-11-09T18:26:29.202Z,11.20
2022-11-09T18:28:58.152Z,11.30
2022-11-09T18:31:27.714Z,11.30
2022-11-09T18:33:56.181Z,11.40
2022-11-09T18:36:24.627Z,11.40
2022-11-09T18:38:56.232Z,11.50
2022-11-09T18:41:26.701Z,11.50
2022-11-09T18:43:55.130Z,12.80
2022-11-09T18:46:23.504Z,11.60
2022-11-09T18:48:53.471Z,11.60
2022-11-09T18:51:23.967Z,11.70
2022-11-09T18:53:52.815Z,11.70
2022-11-09T18:56:24.073Z,11.70
2022-11-09T18:58:55.832Z,11.70
2022-11-09T19:01:27.303Z,11.80
2022-11-09T19:03:59.553Z,11.80
2022-11-09T19:06:36.998Z,11.80
2022-11-09T19:09:23.592Z,11.80
2022-11-09T19:11:59.141Z,11.90
2022-11-09T19:14:31.181Z,11.90
2022-11-09T19:17:01.090Z,11.10
2022-11-09T19:19:29.455Z,11.90
2022-11-09T19:21:58.654Z,11.90
2022-11-09T19:24:28.702Z,11.90
2022-11-09T19:26:57.345Z,11.90
2022-11-09T19:29:32.361Z,11.90
2022-11-09T19:32:01.101Z,11.90
2022-11-09T19:34:29.615Z,11.90
2022-11-09T19:37:04.132Z,11.90
2022-11-09T19:39:34.633Z,11.90
2022-11-09T19:42:04.669Z,11.90
2022-11-09T19:44:37.352Z,11.90
2022-11-09T19:47:07.335Z,11.80
2022-11-09T19:49:35.884Z,11.80
2022-11-09T19:52:04.516Z,11.80
2022-11-09T19:54:33.164Z,11.70
2022-11-09T19:57:01.580Z,11.70
2022-11-09T19:59:31.214Z,11.70
2022-11-09T20:02:01.031Z,11.60
2022-11-09T20:04:38.108Z,11.60
2022-11-09T20:07:07.259Z,11.60
2022-11-09T20:09:35.857Z,11.60
2022-11-09T20:12:22.002Z,11.50
2022-11-09T20:14:50.510Z,11.50
2022-11-09T20:17:20.410Z,12.80
2022-11-09T20:19:48.863Z,11.50
2022-11-09T20:22:17.608Z,11.50
2022-11-09T20:25:05.754Z,11.40
2022-11-09T20:27:52.298Z,11.40
2022-11-09T20:30:35.664Z,11.30
2022-11-09T20:33:06.258Z,11.30
2022-11-09T20:35:34.984Z,11.30
2022-11-09T20:38:03.798Z,11.20
2022-11-09T20:40:32.184Z,11.20
2022-11-09T20:43:00.682Z,11.20
2022-11-09T20:45:29.182Z,11.20
2022-11-09T20:48:10.673Z,11.10
2022-11-09T20:50:58.071Z,11.10
2022-11-09T20:53:30.319Z,11.10
2022-11-09T20:56:05.657Z,11.10
2022-11-09T20:58:47.632Z,11.00
2022-11-09T21:01:22.230Z,11.00
2022-11-09T21:03:57.016Z,10.90
2022-11-09T21:06:30.867Z,10.90
2022-11-09T21:09:06.033Z,10.80
2022-11-09T21:11:37.506Z,10.80
2022-11-09T21:14:07.025Z,10.80
2022-11-09T21:16:37.726Z,10.80
2022-11-09T21:19:08.041Z,10.70
2022-11-09T21:21:39.082Z,10.70
2022-11-09T21:24:27.552Z,10.70
2022-11-09T21:27:14.450Z,10.70
2022-11-09T21:29:52.876Z,10.70
2022-11-09T21:32:25.053Z,10.70
2022-11-09T21:34:53.524Z,10.70
2022-11-09T21:37:23.338Z,10.80
2022-11-09T21:39:51.725Z,10.80
2022-11-09T21:42:20.185Z,10.90
2022-11-09T21:44:48.541Z,10.90
2022-11-09T21:47:17.579Z,10.80
2022-11-09T21:49:46.390Z,10.80
2022-11-09T21:52:16.811Z,10.80
2022-11-09T21:54:46.676Z,10.80
2022-11-09T21:57:16.850Z,10.90
2022-11-09T21:59:45.793Z,10.80
2022-11-09T22:02:16.209Z,10.90
2022-11-09T22:04:46.537Z,10.90
2022-11-09T22:07:15.168Z,10.90
2022-11-09T22:10:09.499Z,10.90
2022-11-09T22:12:57.421Z,10.80
2022-11-09T22:15:44.244Z,10.80
2022-11-09T22:18:33.795Z,10.80
2022-11-09T22:21:01.303Z,10.80
2022-11-09T22:23:29.722Z,10.80
2022-11-09T22:26:02.390Z,11.10
2022-11-09T22:28:30.762Z,10.80
2022-11-09T22:31:01.931Z,10.90
2022-11-09T22:33:30.995Z,10.90
2022-11-09T22:36:01.074Z,10.90
2022-11-09T22:38:29.881Z,10.90
2022-11-09T22:41:03.290Z,10.90
2022-11-09T22:43:34.530Z,10.90
2022-11-09T22:46:05.233Z,10.90
2022-11-09T22:48:34.013Z,10.90
2022-11-09T22:51:03.114Z,10.90
2022-11-09T22:53:31.851Z,10.80
2022-11-09T22:56:08.529Z,10.80
2022-11-09T22:58:36.996Z,10.80
2022-11-09T23:01:08.985Z,10.80
2022-11-09T23:03:37.443Z,10.80
2022-11-09T23:06:08.434Z,10.80
2022-11-09T23:08:38.354Z,10.80
2022-11-09T23:11:11.189Z,10.80
2022-11-09T23:13:41.183Z,10.90
2022-11-09T23:16:11.547Z,10.80
2022-11-09T23:18:54.455Z,10.90
2022-11-09T23:21:26.531Z,10.90
2022-11-09T23:23:56.971Z,10.90
2022-11-09T23:26:28.095Z,11.00
2022-11-09T23:28:57.546Z,11.00
2022-11-09T23:31:27.234Z,11.10
2022-11-09T23:33:58.264Z,11.10
2022-11-09T23:36:28.112Z,11.10
2022-11-09T23:38:56.713Z,11.20
2022-11-09T23:41:26.919Z,11.20
2022-11-09T23:43:57.346Z,11.30
2022-11-09T23:46:25.965Z,11.30
2022-11-09T23:48:54.944Z,11.30
